sensor_id;sensor_type;location;lat;lon;timestamp;pressure;altitude;pressure_sealevel;temperature;humidity
18985;BME280;9626;52.552;13.436;2024-02-26T00:00:05;99847.59;;;4.44;100.00
18985;BME280;9626;52.552;13.436;2024-02-26T00:02:37;99846.00;;;4.26;100.00
18985;BME280;9626;52.552;13.436;2024-02-26T00:05:07;99845.06;;;4.38;100.00
18985;BME280;9626;52.552;13.436;2024-02-26T00:07:34;99849.44;;;4.33;100.00
18985;BME280;9626;52.552;13.436;2024-02-26T00:10:00;99841.47;;;4.47;100.00
18985;BME280;9626;52.552;13.436;2024-02-26T00:12:26;99845.84;;;4.46;100.00
18985;BME280;9626;52.552;13.436;2024-02-26T00:14:52;99845.09;;;4.30;100.00
18985;BME280;9626;52.552;13.436;2024-02-26T00:17:19;99838.19;;;4.17;100.00
18985;BME280;9626;52.552;13.436;2024-02-26T00:19:45;99839.16;;;4.03;100.00
18985;BME280;9626;52.552;13.436;2024-02-26T00:22:11;99833.09;;;3.95;100.00
18985;BME280;9626;52.552;13.436;2024-02-26T00:24:37;99825.91;;;4.25;100.00
18985;BME280;9626;52.552;13.436;2024-02-26T00:27:03;99834.53;;;4.39;100.00
18985;BME280;9626;52.552;13.436;2024-02-26T00:29:29;99828.50;;;4.31;100.00
18985;BME280;9626;52.552;13.436;2024-02-26T00:31:55;99828.31;;;4.50;100.00
18985;BME280;9626;52.552;13.436;2024-02-26T00:34:21;99824.84;;;4.51;100.00
18985;BME280;9626;52.552;13.436;2024-02-26T00:36:49;99820.69;;;4.22;100.00
18985;BME280;9626;52.552;13.436;2024-02-26T00:39:15;99826.97;;;3.99;100.00
18985;BME280;9626;52.552;13.436;2024-02-26T00:41:41;99821.81;;;3.90;100.00
18985;BME280;9626;52.552;13.436;2024-02-26T00:44:07;99836.63;;;3.91;100.00
18985;BME280;9626;52.552;13.436;2024-02-26T00:46:33;99825.31;;;3.81;100.00
18985;BME280;9626;52.552;13.436;2024-02-26T00:48:59;99828.00;;;3.70;100.00
18985;BME280;9626;52.552;13.436;2024-02-26T00:51:26;99822.63;;;3.95;100.00
18985;BME280;9626;52.552;13.436;2024-02-26T00:53:52;99818.34;;;3.79;100.00
18985;BME280;9626;52.552;13.436;2024-02-26T00:56:18;99812.97;;;4.03;100.00
18985;BME280;9626;52.552;13.436;2024-02-26T00:58:44;99817.41;;;3.92;100.00
18985;BME280;9626;52.552;13.436;2024-02-26T01:01:10;99819.31;;;3.68;100.00
18985;BME280;9626;52.552;13.436;2024-02-26T01:03:36;99811.44;;;3.70;100.00
18985;BME280;9626;52.552;13.436;2024-02-26T01:06:02;99813.94;;;3.90;100.00
18985;BME280;9626;52.552;13.436;2024-02-26T01:08:28;99817.50;;;3.80;100.00
18985;BME280;9626;52.552;13.436;2024-02-26T01:10:54;99814.00;;;3.75;100.00
18985;BME280;9626;52.552;13.436;2024-02-26T01:13:20;99815.69;;;3.88;100.00
18985;BME280;9626;52.552;13.436;2024-02-26T01:15:46;99811.28;;;3.96;100.00
18985;BME280;9626;52.552;13.436;2024-02-26T01:18:12;99806.91;;;3.97;100.00
18985;BME280;9626;52.552;13.436;2024-02-26T01:20:37;99806.06;;;3.88;100.00
18985;BME280;9626;52.552;13.436;2024-02-26T01:23:04;99806.16;;;3.76;100.00
18985;BME280;9626;52.552;13.436;2024-02-26T01:25:29;99808.78;;;3.75;100.00
18985;BME280;9626;52.552;13.436;2024-02-26T01:27:56;99815.00;;;3.57;100.00
18985;BME280;9626;52.552;13.436;2024-02-26T01:30:22;99818.50;;;3.46;100.00
18985;BME280;9626;52.552;13.436;2024-02-26T01:32:48;99810.69;;;3.42;100.00
18985;BME280;9626;52.552;13.436;2024-02-26T01:35:14;99819.38;;;3.56;100.00
18985;BME280;9626;52.552;13.436;2024-02-26T01:37:40;99812.41;;;3.49;100.00
18985;BME280;9626;52.552;13.436;2024-02-26T01:40:07;99806.34;;;3.37;100.00
18985;BME280;9626;52.552;13.436;2024-02-26T01:42:38;99806.41;;;3.27;100.00
18985;BME280;9626;52.552;13.436;2024-02-26T01:45:05;99807.25;;;3.30;100.00
18985;BME280;9626;52.552;13.436;2024-02-26T01:47:33;99802.03;;;3.30;100.00
18985;BME280;9626;52.552;13.436;2024-02-26T01:49:59;99800.22;;;3.48;100.00
18985;BME280;9626;52.552;13.436;2024-02-26T01:52:25;99801.91;;;3.50;100.00
18985;BME280;9626;52.552;13.436;2024-02-26T01:54:51;99795.00;;;3.38;100.00
18985;BME280;9626;52.552;13.436;2024-02-26T01:57:17;99797.69;;;3.20;100.00
18985;BME280;9626;52.552;13.436;2024-02-26T01:59:43;99807.28;;;3.24;100.00
18985;BME280;9626;52.552;13.436;2024-02-26T02:02:12;99802.09;;;3.18;100.00
18985;BME280;9626;52.552;13.436;2024-02-26T02:04:38;99802.97;;;3.09;100.00
18985;BME280;9626;52.552;13.436;2024-02-26T02:07:05;99813.44;;;3.14;100.00
18985;BME280;9626;52.552;13.436;2024-02-26T02:09:31;99816.91;;;3.07;100.00
18985;BME280;9626;52.552;13.436;2024-02-26T02:11:58;99810.75;;;3.29;100.00
18985;BME280;9626;52.552;13.436;2024-02-26T02:14:24;99813.38;;;3.29;100.00
18985;BME280;9626;52.552;13.436;2024-02-26T02:16:52;99807.22;;;3.36;100.00
18985;BME280;9626;52.552;13.436;2024-02-26T02:19:18;99808.94;;;3.41;100.00
18985;BME280;9626;52.552;13.436;2024-02-26T02:21:44;99805.44;;;3.45;100.00
18985;BME280;9626;52.552;13.436;2024-02-26T02:24:10;99811.56;;;3.39;100.00
18985;BME280;9626;52.552;13.436;2024-02-26T02:26:36;99807.28;;;3.21;100.00
18985;BME280;9626;52.552;13.436;2024-02-26T02:29:02;99810.84;;;3.01;100.00
18985;BME280;9626;52.552;13.436;2024-02-26T02:31:28;99809.09;;;2.94;100.00
18985;BME280;9626;52.552;13.436;2024-02-26T02:33:54;99807.34;;;2.99;100.00
18985;BME280;9626;52.552;13.436;2024-02-26T02:36:20;99808.22;;;3.04;100.00
18985;BME280;9626;52.552;13.436;2024-02-26T02:38:50;99810.75;;;3.31;100.00
18985;BME280;9626;52.552;13.436;2024-02-26T02:41:17;99810.78;;;3.20;100.00
18985;BME280;9626;52.552;13.436;2024-02-26T02:43:43;99817.75;;;3.15;100.00
18985;BME280;9626;52.552;13.436;2024-02-26T02:46:09;99806.47;;;3.03;100.00
18985;BME280;9626;52.552;13.436;2024-02-26T02:48:37;99803.91;;;2.80;100.00
18985;BME280;9626;52.552;13.436;2024-02-26T02:51:04;99799.53;;;2.81;100.00
18985;BME280;9626;52.552;13.436;2024-02-26T02:53:30;99805.69;;;2.70;100.00
18985;BME280;9626;52.552;13.436;2024-02-26T02:55:56;99810.91;;;2.61;100.00
18985;BME280;9626;52.552;13.436;2024-02-26T02:58:22;99808.28;;;2.63;100.00
18985;BME280;9626;52.552;13.436;2024-02-26T03:00:47;99818.78;;;2.58;100.00
18985;BME280;9626;52.552;13.436;2024-02-26T03:03:13;99822.25;;;2.52;100.00
18985;BME280;9626;52.552;13.436;2024-02-26T03:05:39;99819.66;;;2.51;100.00
18985;BME280;9626;52.552;13.436;2024-02-26T03:08:05;99811.81;;;2.51;100.00
18985;BME280;9626;52.552;13.436;2024-02-26T03:10:33;99823.97;;;2.61;100.00
18985;BME280;9626;52.552;13.436;2024-02-26T03:12:59;99819.63;;;2.79;100.00
18985;BME280;9626;52.552;13.436;2024-02-26T03:15:25;99821.34;;;2.83;100.00
18985;BME280;9626;52.552;13.436;2024-02-26T03:17:51;99827.47;;;2.74;100.00
18985;BME280;9626;52.552;13.436;2024-02-26T03:20:17;99816.13;;;2.64;100.00
18985;BME280;9626;52.552;13.436;2024-02-26T03:22:45;99819.63;;;2.60;100.00
18985;BME280;9626;52.552;13.436;2024-02-26T03:25:11;99815.28;;;2.59;100.00
18985;BME280;9626;52.552;13.436;2024-02-26T03:27:37;99822.25;;;2.65;100.00
18985;BME280;9626;52.552;13.436;2024-02-26T03:30:03;99826.59;;;2.70;100.00
18985;BME280;9626;52.552;13.436;2024-02-26T03:32:29;99817.03;;;2.65;100.00
18985;BME280;9626;52.552;13.436;2024-02-26T03:34:55;99826.59;;;2.80;100.00
18985;BME280;9626;52.552;13.436;2024-02-26T03:37:21;99817.00;;;2.71;100.00
18985;BME280;9626;52.552;13.436;2024-02-26T03:39:47;99812.66;;;2.75;100.00
18985;BME280;9626;52.552;13.436;2024-02-26T03:42:14;99816.13;;;2.80;100.00
18985;BME280;9626;52.552;13.436;2024-02-26T03:44:40;99824.00;;;2.67;100.00
18985;BME280;9626;52.552;13.436;2024-02-26T03:47:05;99818.75;;;2.61;100.00
18985;BME280;9626;52.552;13.436;2024-02-26T03:49:31;99823.97;;;2.52;100.00
18985;BME280;9626;52.552;13.436;2024-02-26T03:51:57;99825.75;;;2.61;100.00
18985;BME280;9626;52.552;13.436;2024-02-26T03:54:23;99824.84;;;2.71;100.00
18985;BME280;9626;52.552;13.436;2024-02-26T03:56:50;99834.41;;;2.84;100.00
18985;BME280;9626;52.552;13.436;2024-02-26T03:59:16;99835.25;;;2.94;100.00
18985;BME280;9626;52.552;13.436;2024-02-26T04:01:46;99832.69;;;2.86;100.00
18985;BME280;9626;52.552;13.436;2024-02-26T04:04:13;99836.13;;;2.99;100.00
18985;BME280;9626;52.552;13.436;2024-02-26T04:06:38;99833.53;;;2.90;100.00
18985;BME280;9626;52.552;13.436;2024-02-26T04:09:04;99833.53;;;2.90;100.00
18985;BME280;9626;52.552;13.436;2024-02-26T04:11:32;99825.69;;;2.79;100.00
18985;BME280;9626;52.552;13.436;2024-02-26T04:14:00;99828.31;;;2.68;100.00
18985;BME280;9626;52.552;13.436;2024-02-26T04:16:26;99832.69;;;2.57;100.00
18985;BME280;9626;52.552;13.436;2024-02-26T04:18:52;99842.28;;;2.52;100.00
18985;BME280;9626;52.552;13.436;2024-02-26T04:21:19;99843.16;;;2.68;100.00
18985;BME280;9626;52.552;13.436;2024-02-26T04:23:45;99846.63;;;2.76;100.00
18985;BME280;9626;52.552;13.436;2024-02-26T04:26:11;99851.00;;;2.63;100.00
18985;BME280;9626;52.552;13.436;2024-02-26T04:28:37;99850.16;;;2.44;100.00
18985;BME280;9626;52.552;13.436;2024-02-26T04:31:03;99846.63;;;2.44;100.00
18985;BME280;9626;52.552;13.436;2024-02-26T04:33:29;99843.16;;;2.49;100.00
18985;BME280;9626;52.552;13.436;2024-02-26T04:35:55;99851.00;;;2.40;100.00
18985;BME280;9626;52.552;13.436;2024-02-26T04:38:21;99857.97;;;2.61;100.00
18985;BME280;9626;52.552;13.436;2024-02-26T04:40:48;99863.19;;;2.61;100.00
18985;BME280;9626;52.552;13.436;2024-02-26T04:43:14;99864.06;;;2.56;100.00
18985;BME280;9626;52.552;13.436;2024-02-26T04:45:40;99869.28;;;2.68;100.00
18985;BME280;9626;52.552;13.436;2024-02-26T04:48:06;99871.91;;;2.69;100.00
18985;BME280;9626;52.552;13.436;2024-02-26T04:50:32;99871.03;;;2.50;100.00
18985;BME280;9626;52.552;13.436;2024-02-26T04:52:58;99878.00;;;2.39;100.00
18985;BME280;9626;52.552;13.436;2024-02-26T04:55:24;99876.25;;;2.26;100.00
18985;BME280;9626;52.552;13.436;2024-02-26T04:57:50;99877.13;;;2.31;100.00
18985;BME280;9626;52.552;13.436;2024-02-26T05:00:16;99877.97;;;2.17;100.00
18985;BME280;9626;52.552;13.436;2024-02-26T05:02:43;99877.97;;;2.20;100.00
18985;BME280;9626;52.552;13.436;2024-02-26T05:05:09;99884.09;;;2.36;100.00
18985;BME280;9626;52.552;13.436;2024-02-26T05:07:40;99878.00;;;2.38;100.00
18985;BME280;9626;52.552;13.436;2024-02-26T05:10:06;99879.72;;;2.37;100.00
18985;BME280;9626;52.552;13.436;2024-02-26T05:12:32;99871.03;;;2.32;100.00
18985;BME280;9626;52.552;13.436;2024-02-26T05:15:01;99884.94;;;2.23;100.00
18985;BME280;9626;52.552;13.436;2024-02-26T05:17:27;99887.56;;;2.26;100.00
18985;BME280;9626;52.552;13.436;2024-02-26T05:19:54;99889.31;;;2.21;100.00
18985;BME280;9626;52.552;13.436;2024-02-26T05:22:20;99894.53;;;2.27;100.00
18985;BME280;9626;52.552;13.436;2024-02-26T05:24:46;99890.19;;;2.32;100.00
18985;BME280;9626;52.552;13.436;2024-02-26T05:27:11;99906.72;;;2.22;100.00
18985;BME280;9626;52.552;13.436;2024-02-26T05:29:38;99894.50;;;2.18;100.00
18985;BME280;9626;52.552;13.436;2024-02-26T05:32:05;99904.97;;;2.12;100.00
18985;BME280;9626;52.552;13.436;2024-02-26T05:34:31;99907.53;;;2.06;100.00
18985;BME280;9626;52.552;13.436;2024-02-26T05:36:57;99902.34;;;2.10;100.00
18985;BME280;9626;52.552;13.436;2024-02-26T05:39:23;99904.97;;;2.15;100.00
18985;BME280;9626;52.552;13.436;2024-02-26T05:41:49;99914.53;;;2.19;100.00
18985;BME280;9626;52.552;13.436;2024-02-26T05:44:15;99912.81;;;2.29;100.00
18985;BME280;9626;52.552;13.436;2024-02-26T05:46:44;99911.97;;;2.30;100.00
18985;BME280;9626;52.552;13.436;2024-02-26T05:49:10;99913.72;;;2.29;100.00
18985;BME280;9626;52.552;13.436;2024-02-26T05:51:36;99917.22;;;2.36;100.00
18985;BME280;9626;52.552;13.436;2024-02-26T05:54:02;99916.31;;;2.35;100.00
18985;BME280;9626;52.552;13.436;2024-02-26T05:56:28;99920.66;;;2.26;100.00
18985;BME280;9626;52.552;13.436;2024-02-26T05:58:55;99920.63;;;2.15;100.00
18985;BME280;9626;52.552;13.436;2024-02-26T06:01:21;99927.63;;;2.24;100.00
18985;BME280;9626;52.552;13.436;2024-02-26T06:03:47;99930.25;;;2.31;100.00
18985;BME280;9626;52.552;13.436;2024-02-26T06:06:13;99935.47;;;2.34;100.00
18985;BME280;9626;52.552;13.436;2024-02-26T06:08:40;99935.47;;;2.30;100.00
18985;BME280;9626;52.552;13.436;2024-02-26T06:11:07;99940.69;;;2.31;100.00
18985;BME280;9626;52.552;13.436;2024-02-26T06:13:34;99939.84;;;2.39;100.00
18985;BME280;9626;52.552;13.436;2024-02-26T06:16:00;99939.00;;;2.46;100.00
18985;BME280;9626;52.552;13.436;2024-02-26T06:18:26;99932.84;;;2.34;100.00
18985;BME280;9626;52.552;13.436;2024-02-26T06:20:54;99933.72;;;2.24;100.00
18985;BME280;9626;52.552;13.436;2024-02-26T06:23:20;99937.19;;;2.22;100.00
18985;BME280;9626;52.552;13.436;2024-02-26T06:25:46;99940.66;;;2.19;100.00
18985;BME280;9626;52.552;13.436;2024-02-26T06:28:13;99935.44;;;2.20;100.00
18985;BME280;9626;52.552;13.436;2024-02-26T06:30:39;99945.03;;;2.20;100.00
18985;BME280;9626;52.552;13.436;2024-02-26T06:33:06;99947.66;;;2.23;100.00
18985;BME280;9626;52.552;13.436;2024-02-26T06:35:32;99947.66;;;2.23;100.00
18985;BME280;9626;52.552;13.436;2024-02-26T06:37:58;99954.66;;;2.36;100.00
18985;BME280;9626;52.552;13.436;2024-02-26T06:40:24;99951.22;;;2.65;100.00
18985;BME280;9626;52.552;13.436;2024-02-26T06:42:51;99949.47;;;3.09;100.00
18985;BME280;9626;52.552;13.436;2024-02-26T06:45:17;99952.09;;;3.04;100.00
18985;BME280;9626;52.552;13.436;2024-02-26T06:47:45;99959.06;;;2.99;100.00
18985;BME280;9626;52.552;13.436;2024-02-26T06:50:14;99955.56;;;2.94;100.00
18985;BME280;9626;52.552;13.436;2024-02-26T06:52:40;99958.19;;;2.91;100.00
18985;BME280;9626;52.552;13.436;2024-02-26T06:55:06;99959.06;;;2.90;100.00
18985;BME280;9626;52.552;13.436;2024-02-26T06:57:34;99969.53;;;2.96;100.00
18985;BME280;9626;52.552;13.436;2024-02-26T07:00:02;99970.41;;;3.04;100.00
18985;BME280;9626;52.552;13.436;2024-02-26T07:02:30;99974.75;;;3.09;100.00
18985;BME280;9626;52.552;13.436;2024-02-26T07:04:56;99978.25;;;3.17;100.00
18985;BME280;9626;52.552;13.436;2024-02-26T07:07:24;99985.19;;;3.24;100.00
18985;BME280;9626;52.552;13.436;2024-02-26T07:09:50;99985.19;;;3.33;100.00
18985;BME280;9626;52.552;13.436;2024-02-26T07:12:17;99979.97;;;3.43;100.00
18985;BME280;9626;52.552;13.436;2024-02-26T07:14:43;99993.03;;;3.53;100.00
18985;BME280;9626;52.552;13.436;2024-02-26T07:17:09;99993.84;;;3.68;100.00
18985;BME280;9626;52.552;13.436;2024-02-26T07:19:35;99997.31;;;3.81;100.00
18985;BME280;9626;52.552;13.436;2024-02-26T07:22:01;99995.50;;;4.01;100.00
18985;BME280;9626;52.552;13.436;2024-02-26T07:24:27;99995.41;;;4.26;100.00
18985;BME280;9626;52.552;13.436;2024-02-26T07:26:53;99996.19;;;4.42;100.00
18985;BME280;9626;52.552;13.436;2024-02-26T07:29:22;99996.94;;;4.64;100.00
18985;BME280;9626;52.552;13.436;2024-02-26T07:31:48;99995.91;;;4.88;100.00
18985;BME280;9626;52.552;13.436;2024-02-26T07:34:14;100000.09;;;5.13;100.00
18985;BME280;9626;52.552;13.436;2024-02-26T07:36:41;99999.78;;;5.44;100.00
18985;BME280;9626;52.552;13.436;2024-02-26T07:39:07;100004.03;;;5.58;100.00
18985;BME280;9626;52.552;13.436;2024-02-26T07:41:33;100003.06;;;5.69;100.00
18985;BME280;9626;52.552;13.436;2024-02-26T07:43:59;99996.44;;;6.16;100.00
18985;BME280;9626;52.552;13.436;2024-02-26T07:46:25;99998.00;;;6.28;100.00
18985;BME280;9626;52.552;13.436;2024-02-26T07:48:51;99997.06;;;6.32;100.00
18985;BME280;9626;52.552;13.436;2024-02-26T07:51:18;99988.25;;;6.36;100.00
18985;BME280;9626;52.552;13.436;2024-02-26T07:53:45;99995.19;;;6.43;100.00
18985;BME280;9626;52.552;13.436;2024-02-26T07:56:11;99989.59;;;6.68;100.00
18985;BME280;9626;52.552;13.436;2024-02-26T07:58:37;99991.00;;;6.89;100.00
18985;BME280;9626;52.552;13.436;2024-02-26T08:01:03;99990.75;;;7.06;100.00
18985;BME280;9626;52.552;13.436;2024-02-26T08:03:29;99998.75;;;6.99;100.00
18985;BME280;9626;52.552;13.436;2024-02-26T08:05:55;99991.88;;;6.90;100.00
18985;BME280;9626;52.552;13.436;2024-02-26T08:08:21;99999.69;;;6.94;100.00
18985;BME280;9626;52.552;13.436;2024-02-26T08:10:48;99991.97;;;6.84;100.00
18985;BME280;9626;52.552;13.436;2024-02-26T08:13:16;99993.84;;;6.75;100.00
18985;BME280;9626;52.552;13.436;2024-02-26T08:15:41;99981.69;;;6.68;100.00
18985;BME280;9626;52.552;13.436;2024-02-26T08:18:07;100002.81;;;6.62;100.00
18985;BME280;9626;52.552;13.436;2024-02-26T08:20:34;99994.88;;;6.64;100.00
18985;BME280;9626;52.552;13.436;2024-02-26T08:23:00;99998.59;;;6.50;100.00
18985;BME280;9626;52.552;13.436;2024-02-26T08:25:26;99999.38;;;6.55;100.00
18985;BME280;9626;52.552;13.436;2024-02-26T08:27:52;99992.38;;;6.54;100.00
18985;BME280;9626;52.552;13.436;2024-02-26T08:30:19;99991.53;;;6.54;100.00
18985;BME280;9626;52.552;13.436;2024-02-26T08:32:45;99991.16;;;6.79;100.00
18985;BME280;9626;52.552;13.436;2024-02-26T08:35:12;99989.78;;;7.12;100.00
18985;BME280;9626;52.552;13.436;2024-02-26T08:37:39;99994.41;;;7.49;100.00
18985;BME280;9626;52.552;13.436;2024-02-26T08:40:08;99998.97;;;7.86;100.00
18985;BME280;9626;52.552;13.436;2024-02-26T08:42:37;100002.72;;;8.20;100.00
18985;BME280;9626;52.552;13.436;2024-02-26T08:45:03;99999.63;;;8.80;100.00
18985;BME280;9626;52.552;13.436;2024-02-26T08:47:30;99993.94;;;9.68;100.00
18985;BME280;9626;52.552;13.436;2024-02-26T08:49:56;99991.38;;;9.96;100.00
18985;BME280;9626;52.552;13.436;2024-02-26T08:52:22;99989.19;;;10.12;100.00
18985;BME280;9626;52.552;13.436;2024-02-26T08:54:49;99995.53;;;10.38;100.00
18985;BME280;9626;52.552;13.436;2024-02-26T08:57:15;100001.16;;;9.94;100.00
18985;BME280;9626;52.552;13.436;2024-02-26T08:59:41;99992.72;;;10.44;100.00
18985;BME280;9626;52.552;13.436;2024-02-26T09:02:08;99991.69;;;10.77;100.00
18985;BME280;9626;52.552;13.436;2024-02-26T09:04:35;99974.97;;;11.03;100.00
18985;BME280;9626;52.552;13.436;2024-02-26T09:07:02;99960.03;;;12.03;93.51
18985;BME280;9626;52.552;13.436;2024-02-26T09:09:28;99950.69;;;12.62;90.73
18985;BME280;9626;52.552;13.436;2024-02-26T09:11:54;99956.81;;;12.64;89.49
18985;BME280;9626;52.552;13.436;2024-02-26T09:14:21;99930.28;;;13.28;78.07
18985;BME280;9626;52.552;13.436;2024-02-26T09:16:47;99939.44;;;13.00;82.92
18985;BME280;9626;52.552;13.436;2024-02-26T09:19:17;99949.59;;;12.68;82.77
18985;BME280;9626;52.552;13.436;2024-02-26T09:21:44;99941.22;;;12.77;82.30
18985;BME280;9626;52.552;13.436;2024-02-26T09:24:11;99946.50;;;12.79;80.24
18985;BME280;9626;52.552;13.436;2024-02-26T09:26:37;99969.50;;;12.34;89.04
18985;BME280;9626;52.552;13.436;2024-02-26T09:29:04;99979.94;;;12.15;90.91
18985;BME280;9626;52.552;13.436;2024-02-26T09:31:30;99970.25;;;12.14;90.27
18985;BME280;9626;52.552;13.436;2024-02-26T09:33:56;99973.19;;;12.30;88.61
18985;BME280;9626;52.552;13.436;2024-02-26T09:36:23;99975.47;;;12.39;84.74
18985;BME280;9626;52.552;13.436;2024-02-26T09:38:49;99982.66;;;12.13;87.07
18985;BME280;9626;52.552;13.436;2024-02-26T09:41:15;99982.59;;;12.39;90.17
18985;BME280;9626;52.552;13.436;2024-02-26T09:43:45;99989.22;;;12.27;89.59
18985;BME280;9626;52.552;13.436;2024-02-26T09:46:14;99980.31;;;12.51;83.45
18985;BME280;9626;52.552;13.436;2024-02-26T09:48:42;99978.81;;;11.97;83.27
18985;BME280;9626;52.552;13.436;2024-02-26T09:51:10;99987.56;;;12.70;87.81
18985;BME280;9626;52.552;13.436;2024-02-26T09:53:38;99965.69;;;13.71;78.44
18985;BME280;9626;52.552;13.436;2024-02-26T09:56:08;99962.03;;;13.53;76.78
18985;BME280;9626;52.552;13.436;2024-02-26T09:58:36;99951.53;;;13.71;71.30
18985;BME280;9626;52.552;13.436;2024-02-26T10:01:03;99963.03;;;13.71;72.86
18985;BME280;9626;52.552;13.436;2024-02-26T10:03:38;99979.63;;;13.13;79.71
18985;BME280;9626;52.552;13.436;2024-02-26T10:06:07;99982.09;;;13.40;79.24
18985;BME280;9626;52.552;13.436;2024-02-26T10:08:35;99974.34;;;13.76;78.61
18985;BME280;9626;52.552;13.436;2024-02-26T10:11:01;99971.13;;;13.27;74.55
18985;BME280;9626;52.552;13.436;2024-02-26T10:13:27;99979.84;;;13.92;74.35
18985;BME280;9626;52.552;13.436;2024-02-26T10:15:53;99967.19;;;14.16;70.65
18985;BME280;9626;52.552;13.436;2024-02-26T10:18:19;99964.50;;;14.18;71.39
18985;BME280;9626;52.552;13.436;2024-02-26T10:21:01;99961.72;;;14.00;72.05
18985;BME280;9626;52.552;13.436;2024-02-26T10:23:27;99961.91;;;13.96;72.64
18985;BME280;9626;52.552;13.436;2024-02-26T10:25:54;99950.59;;;14.49;66.75
18985;BME280;9626;52.552;13.436;2024-02-26T10:28:21;99944.56;;;14.65;68.57
18985;BME280;9626;52.552;13.436;2024-02-26T10:30:48;99952.25;;;14.71;65.98
18985;BME280;9626;52.552;13.436;2024-02-26T10:33:14;99944.88;;;14.57;69.21
18985;BME280;9626;52.552;13.436;2024-02-26T10:35:45;99949.94;;;14.44;67.66
18985;BME280;9626;52.552;13.436;2024-02-26T10:38:12;99953.50;;;15.00;67.87
18985;BME280;9626;52.552;13.436;2024-02-26T10:40:38;99935.22;;;15.63;63.90
18985;BME280;9626;52.552;13.436;2024-02-26T10:43:04;99922.59;;;16.00;64.03
18985;BME280;9626;52.552;13.436;2024-02-26T10:45:31;99917.22;;;15.84;63.57
18985;BME280;9626;52.552;13.436;2024-02-26T10:47:57;99936.00;;;15.82;64.82
18985;BME280;9626;52.552;13.436;2024-02-26T10:50:24;99916.06;;;16.05;61.13
18985;BME280;9626;52.552;13.436;2024-02-26T10:52:50;99927.13;;;16.31;61.30
18985;BME280;9626;52.552;13.436;2024-02-26T10:55:17;99915.22;;;16.37;58.11
18985;BME280;9626;52.552;13.436;2024-02-26T10:57:44;99941.00;;;15.88;62.80
18985;BME280;9626;52.552;13.436;2024-02-26T11:00:14;99930.78;;;15.79;59.99
18985;BME280;9626;52.552;13.436;2024-02-26T11:02:41;99938.50;;;15.68;62.34
18985;BME280;9626;52.552;13.436;2024-02-26T11:05:08;99958.66;;;15.03;69.20
18985;BME280;9626;52.552;13.436;2024-02-26T11:07:34;99945.53;;;14.81;62.93
18985;BME280;9626;52.552;13.436;2024-02-26T11:10:05;99938.34;;;15.01;61.31
18985;BME280;9626;52.552;13.436;2024-02-26T11:12:32;99958.72;;;14.65;64.01
18985;BME280;9626;52.552;13.436;2024-02-26T11:15:01;99968.28;;;14.12;70.51
18985;BME280;9626;52.552;13.436;2024-02-26T11:17:28;99977.28;;;14.29;72.31
18985;BME280;9626;52.552;13.436;2024-02-26T11:19:58;99981.31;;;14.18;68.50
18985;BME280;9626;52.552;13.436;2024-02-26T11:22:25;99980.16;;;14.24;69.40
18985;BME280;9626;52.552;13.436;2024-02-26T11:24:56;99989.97;;;14.43;76.39
18985;BME280;9626;52.552;13.436;2024-02-26T11:27:39;99983.63;;;14.26;70.52
18985;BME280;9626;52.552;13.436;2024-02-26T11:30:12;99982.06;;;14.41;70.69
18985;BME280;9626;52.552;13.436;2024-02-26T11:32:38;99975.72;;;14.63;68.81
18985;BME280;9626;52.552;13.436;2024-02-26T11:35:05;99977.59;;;14.61;67.67
18985;BME280;9626;52.552;13.436;2024-02-26T11:37:33;99980.41;;;14.58;72.33
18985;BME280;9626;52.552;13.436;2024-02-26T11:39:59;99984.44;;;14.66;72.72
18985;BME280;9626;52.552;13.436;2024-02-26T11:42:27;99966.72;;;15.02;67.40
18985;BME280;9626;52.552;13.436;2024-02-26T11:44:54;99960.91;;;14.94;64.32
18985;BME280;9626;52.552;13.436;2024-02-26T11:47:27;99960.00;;;14.95;64.60
18985;BME280;9626;52.552;13.436;2024-02-26T11:49:53;99955.44;;;14.97;63.83
18985;BME280;9626;52.552;13.436;2024-02-26T11:52:18;99957.63;;;14.88;65.87
18985;BME280;9626;52.552;13.436;2024-02-26T11:54:45;99977.47;;;14.64;68.71
18985;BME280;9626;52.552;13.436;2024-02-26T11:59:50;99962.03;;;15.07;64.31
18985;BME280;9626;52.552;13.436;2024-02-26T12:02:46;99966.28;;;14.17;68.75
18985;BME280;9626;52.552;13.436;2024-02-26T12:08:09;100005.44;;;13.53;78.53
18985;BME280;9626;52.552;13.436;2024-02-26T12:10:41;99997.53;;;13.52;76.47
18985;BME280;9626;52.552;13.436;2024-02-26T12:13:16;99989.25;;;13.60;70.97
18985;BME280;9626;52.552;13.436;2024-02-26T12:15:55;99985.50;;;13.64;72.91
18985;BME280;9626;52.552;13.436;2024-02-26T12:18:23;99979.09;;;13.89;69.02
18985;BME280;9626;52.552;13.436;2024-02-26T12:21:01;99979.88;;;14.11;70.40
18985;BME280;9626;52.552;13.436;2024-02-26T12:23:27;99966.81;;;14.64;68.00
18985;BME280;9626;52.552;13.436;2024-02-26T12:25:58;99968.59;;;14.82;67.69
18985;BME280;9626;52.552;13.436;2024-02-26T12:28:28;99964.75;;;14.88;69.35
18985;BME280;9626;52.552;13.436;2024-02-26T12:30:54;99958.94;;;15.16;64.05
18985;BME280;9626;52.552;13.436;2024-02-26T12:33:21;99945.13;;;15.26;61.94
18985;BME280;9626;52.552;13.436;2024-02-26T12:35:47;99948.94;;;15.90;63.18
18985;BME280;9626;52.552;13.436;2024-02-26T12:38:16;99934.41;;;15.78;59.23
18985;BME280;9626;52.552;13.436;2024-02-26T12:40:44;99944.13;;;15.97;58.80
18985;BME280;9626;52.552;13.436;2024-02-26T12:43:10;99938.50;;;16.35;58.07
18985;BME280;9626;52.552;13.436;2024-02-26T12:45:40;99934.34;;;16.77;57.33
18985;BME280;9626;52.552;13.436;2024-02-26T12:48:07;99907.53;;;16.95;55.11
18985;BME280;9626;52.552;13.436;2024-02-26T12:50:33;99933.47;;;15.79;56.24
18985;BME280;9626;52.552;13.436;2024-02-26T12:53:00;99928.13;;;15.79;56.24
18985;BME280;9626;52.552;13.436;2024-02-26T12:55:27;99939.94;;;16.25;59.05
18985;BME280;9626;52.552;13.436;2024-02-26T12:57:53;99916.25;;;16.50;55.01
18985;BME280;9626;52.552;13.436;2024-02-26T13:00:26;99919.88;;;16.33;53.97
18985;BME280;9626;52.552;13.436;2024-02-26T13:02:54;99922.16;;;15.74;54.03